sensor_id;sensor_type;location;lat;lon;timestamp;temperature;humidity
4376;DHT22;2202;50.866;12.750;2023-11-22T00:01:48;0.80;98.50
4376;DHT22;2202;50.866;12.750;2023-11-22T00:04:15;0.90;98.50
4376;DHT22;2202;50.866;12.750;2023-11-22T00:06:44;0.90;98.50
4376;DHT22;2202;50.866;12.750;2023-11-22T00:09:11;0.90;98.50
4376;DHT22;2202;50.866;12.750;2023-11-22T00:11:38;0.80;98.20
4376;DHT22;2202;50.866;12.750;2023-11-22T00:14:05;0.70;98.20
4376;DHT22;2202;50.866;12.750;2023-11-22T00:16:32;0.60;98.20
4376;DHT22;2202;50.866;12.750;2023-11-22T00:18:59;0.50;98.40
4376;DHT22;2202;50.866;12.750;2023-11-22T00:21:26;0.60;98.60
4376;DHT22;2202;50.866;12.750;2023-11-22T00:23:54;0.50;98.40
4376;DHT22;2202;50.866;12.750;2023-11-22T00:26:21;0.50;98.50
4376;DHT22;2202;50.866;12.750;2023-11-22T00:28:48;0.50;98.50
4376;DHT22;2202;50.866;12.750;2023-11-22T00:31:15;0.50;98.70
4376;DHT22;2202;50.866;12.750;2023-11-22T00:33:42;0.40;98.70
4376;DHT22;2202;50.866;12.750;2023-11-22T00:36:08;0.40;98.70
4376;DHT22;2202;50.866;12.750;2023-11-22T00:38:35;0.30;98.70
4376;DHT22;2202;50.866;12.750;2023-11-22T00:41:04;0.30;99.00
4376;DHT22;2202;50.866;12.750;2023-11-22T00:43:32;0.30;99.10
4376;DHT22;2202;50.866;12.750;2023-11-22T00:45:59;0.30;99.10
4376;DHT22;2202;50.866;12.750;2023-11-22T00:48:27;0.30;99.00
4376;DHT22;2202;50.866;12.750;2023-11-22T00:50:53;0.40;98.90
4376;DHT22;2202;50.866;12.750;2023-11-22T00:53:20;0.30;98.90
4376;DHT22;2202;50.866;12.750;2023-11-22T00:55:47;0.30;98.80
4376;DHT22;2202;50.866;12.750;2023-11-22T00:58:15;0.20;98.90
4376;DHT22;2202;50.866;12.750;2023-11-22T01:00:42;0.20;99.00
4376;DHT22;2202;50.866;12.750;2023-11-22T01:03:10;0.20;99.00
4376;DHT22;2202;50.866;12.750;2023-11-22T01:05:37;0.30;99.20
4376;DHT22;2202;50.866;12.750;2023-11-22T01:08:04;0.30;99.20
4376;DHT22;2202;50.866;12.750;2023-11-22T01:10:31;0.30;99.30
4376;DHT22;2202;50.866;12.750;2023-11-22T01:12:57;0.20;99.30
4376;DHT22;2202;50.866;12.750;2023-11-22T01:15:26;0.20;99.20
4376;DHT22;2202;50.866;12.750;2023-11-22T01:17:52;0.10;99.20
4376;DHT22;2202;50.866;12.750;2023-11-22T01:20:19;0.10;99.00
4376;DHT22;2202;50.866;12.750;2023-11-22T01:22:48;0.00;99.20
4376;DHT22;2202;50.866;12.750;2023-11-22T01:25:14;0.00;99.00
4376;DHT22;2202;50.866;12.750;2023-11-22T01:27:41;-0.10;98.80
4376;DHT22;2202;50.866;12.750;2023-11-22T01:30:08;-0.10;98.70
4376;DHT22;2202;50.866;12.750;2023-11-22T01:32:37;0.00;98.90
4376;DHT22;2202;50.866;12.750;2023-11-22T01:35:05;0.00;98.80
4376;DHT22;2202;50.866;12.750;2023-11-22T01:37:32;0.10;98.80
4376;DHT22;2202;50.866;12.750;2023-11-22T01:39:59;0.00;98.40
4376;DHT22;2202;50.866;12.750;2023-11-22T01:42:27;0.00;98.00
4376;DHT22;2202;50.866;12.750;2023-11-22T01:44:54;-0.10;97.70
4376;DHT22;2202;50.866;12.750;2023-11-22T01:47:21;-0.10;97.20
4376;DHT22;2202;50.866;12.750;2023-11-22T01:49:50;-0.20;97.60
4376;DHT22;2202;50.866;12.750;2023-11-22T01:52:16;-0.20;97.80
4376;DHT22;2202;50.866;12.750;2023-11-22T01:54:43;-0.10;97.60
4376;DHT22;2202;50.866;12.750;2023-11-22T01:57:10;-0.10;97.60
4376;DHT22;2202;50.866;12.750;2023-11-22T01:59:38;-0.10;97.70
4376;DHT22;2202;50.866;12.750;2023-11-22T02:02:05;-0.10;97.40
4376;DHT22;2202;50.866;12.750;2023-11-22T02:04:32;0.00;97.50
4376;DHT22;2202;50.866;12.750;2023-11-22T02:07:02;0.00;97.30
4376;DHT22;2202;50.866;12.750;2023-11-22T02:09:28;-0.20;96.70
4376;DHT22;2202;50.866;12.750;2023-11-22T02:11:55;-0.20;97.00
4376;DHT22;2202;50.866;12.750;2023-11-22T02:14:23;-0.20;96.80
4376;DHT22;2202;50.866;12.750;2023-11-22T02:16:50;-0.30;96.80
4376;DHT22;2202;50.866;12.750;2023-11-22T02:19:17;-0.20;97.00
4376;DHT22;2202;50.866;12.750;2023-11-22T02:21:44;-0.20;97.10
4376;DHT22;2202;50.866;12.750;2023-11-22T02:24:14;-0.20;97.10
4376;DHT22;2202;50.866;12.750;2023-11-22T02:26:44;-0.20;97.20
4376;DHT22;2202;50.866;12.750;2023-11-22T02:29:11;-0.10;97.20
4376;DHT22;2202;50.866;12.750;2023-11-22T02:31:39;-0.10;97.20
4376;DHT22;2202;50.866;12.750;2023-11-22T02:34:06;-0.10;96.80
4376;DHT22;2202;50.866;12.750;2023-11-22T02:36:33;-0.10;96.70
4376;DHT22;2202;50.866;12.750;2023-11-22T02:38:59;-0.10;96.70
4376;DHT22;2202;50.866;12.750;2023-11-22T02:41:28;-0.10;96.80
4376;DHT22;2202;50.866;12.750;2023-11-22T02:43:56;-0.10;96.70
4376;DHT22;2202;50.866;12.750;2023-11-22T02:46:23;-0.10;96.70
4376;DHT22;2202;50.866;12.750;2023-11-22T02:48:50;-0.10;96.70
4376;DHT22;2202;50.866;12.750;2023-11-22T02:51:17;-0.10;96.60
4376;DHT22;2202;50.866;12.750;2023-11-22T02:53:43;-0.10;96.40
4376;DHT22;2202;50.866;12.750;2023-11-22T02:56:11;-0.10;96.30
4376;DHT22;2202;50.866;12.750;2023-11-22T02:58:40;-0.10;96.20
4376;DHT22;2202;50.866;12.750;2023-11-22T03:01:07;-0.10;96.00
4376;DHT22;2202;50.866;12.750;2023-11-22T03:03:34;-0.20;96.00
4376;DHT22;2202;50.866;12.750;2023-11-22T03:06:01;-0.10;96.30
4376;DHT22;2202;50.866;12.750;2023-11-22T03:08:28;-0.10;96.10
4376;DHT22;2202;50.866;12.750;2023-11-22T03:10:54;-0.20;95.80
4376;DHT22;2202;50.866;12.750;2023-11-22T03:13:21;-0.20;96.10
4376;DHT22;2202;50.866;12.750;2023-11-22T03:15:49;-0.20;96.30
4376;DHT22;2202;50.866;12.750;2023-11-22T03:18:17;-0.20;96.70
4376;DHT22;2202;50.866;12.750;2023-11-22T03:20:44;-0.20;96.30
4376;DHT22;2202;50.866;12.750;2023-11-22T03:23:12;-0.20;96.40
4376;DHT22;2202;50.866;12.750;2023-11-22T03:25:42;-0.20;96.00
4376;DHT22;2202;50.866;12.750;2023-11-22T03:28:09;-0.20;96.20
4376;DHT22;2202;50.866;12.750;2023-11-22T03:30:36;-0.20;95.60
4376;DHT22;2202;50.866;12.750;2023-11-22T03:33:04;-0.20;95.50
4376;DHT22;2202;50.866;12.750;2023-11-22T03:35:31;-0.30;95.20
4376;DHT22;2202;50.866;12.750;2023-11-22T03:37:58;-0.30;95.50
4376;DHT22;2202;50.866;12.750;2023-11-22T03:40:24;-0.30;95.40
4376;DHT22;2202;50.866;12.750;2023-11-22T03:42:51;-0.30;95.70
4376;DHT22;2202;50.866;12.750;2023-11-22T03:45:18;-0.30;95.70
4376;DHT22;2202;50.866;12.750;2023-11-22T03:47:45;-0.30;95.40
4376;DHT22;2202;50.866;12.750;2023-11-22T03:50:13;-0.30;95.30
4376;DHT22;2202;50.866;12.750;2023-11-22T03:52:40;-0.30;95.20
4376;DHT22;2202;50.866;12.750;2023-11-22T03:55:07;-0.40;95.00
4376;DHT22;2202;50.866;12.750;2023-11-22T03:57:34;-0.40;95.00
4376;DHT22;2202;50.866;12.750;2023-11-22T04:00:01;-0.40;95.20
4376;DHT22;2202;50.866;12.750;2023-11-22T04:02:31;-0.30;95.40
4376;DHT22;2202;50.866;12.750;2023-11-22T04:04:58;-0.30;95.80
4376;DHT22;2202;50.866;12.750;2023-11-22T04:07:26;-0.30;95.60
4376;DHT22;2202;50.866;12.750;2023-11-22T04:09:54;-0.30;95.20
4376;DHT22;2202;50.866;12.750;2023-11-22T04:12:21;-0.30;94.60
4376;DHT22;2202;50.866;12.750;2023-11-22T04:14:48;-0.30;94.50
4376;DHT22;2202;50.866;12.750;2023-11-22T04:17:17;-0.40;94.40
4376;DHT22;2202;50.866;12.750;2023-11-22T04:19:44;-0.40;94.70
4376;DHT22;2202;50.866;12.750;2023-11-22T04:22:10;-0.30;94.80
4376;DHT22;2202;50.866;12.750;2023-11-22T04:24:39;-0.30;95.00
4376;DHT22;2202;50.866;12.750;2023-11-22T04:27:05;-0.30;95.00
4376;DHT22;2202;50.866;12.750;2023-11-22T04:29:32;-0.20;95.00
4376;DHT22;2202;50.866;12.750;2023-11-22T04:31:59;-0.20;95.00
4376;DHT22;2202;50.866;12.750;2023-11-22T04:34:26;-0.20;95.10
4376;DHT22;2202;50.866;12.750;2023-11-22T04:36:53;-0.20;95.10
4376;DHT22;2202;50.866;12.750;2023-11-22T04:39:20;-0.20;95.20
4376;DHT22;2202;50.866;12.750;2023-11-22T04:41:48;-0.30;95.30
4376;DHT22;2202;50.866;12.750;2023-11-22T04:44:15;-0.30;95.70
4376;DHT22;2202;50.866;12.750;2023-11-22T04:46:42;-0.30;95.80
4376;DHT22;2202;50.866;12.750;2023-11-22T04:49:08;-0.20;95.80
4376;DHT22;2202;50.866;12.750;2023-11-22T04:51:35;-0.20;95.70
4376;DHT22;2202;50.866;12.750;2023-11-22T04:54:02;-0.30;95.80
4376;DHT22;2202;50.866;12.750;2023-11-22T04:56:29;-0.30;95.50
4376;DHT22;2202;50.866;12.750;2023-11-22T04:58:57;-0.40;96.00
4376;DHT22;2202;50.866;12.750;2023-11-22T05:01:24;-0.40;96.10
4376;DHT22;2202;50.866;12.750;2023-11-22T05:03:51;-0.30;96.20
4376;DHT22;2202;50.866;12.750;2023-11-22T05:06:18;-0.30;95.90
4376;DHT22;2202;50.866;12.750;2023-11-22T05:08:46;-0.30;96.00
4376;DHT22;2202;50.866;12.750;2023-11-22T05:11:13;-0.40;96.00
4376;DHT22;2202;50.866;12.750;2023-11-22T05:13:41;-0.30;96.00
4376;DHT22;2202;50.866;12.750;2023-11-22T05:16:09;-0.20;96.00
4376;DHT22;2202;50.866;12.750;2023-11-22T05:18:36;-0.30;95.70
4376;DHT22;2202;50.866;12.750;2023-11-22T05:21:03;-0.30;95.80
4376;DHT22;2202;50.866;12.750;2023-11-22T05:23:30;-0.30;95.80
4376;DHT22;2202;50.866;12.750;2023-11-22T05:25:57;-0.30;95.70
4376;DHT22;2202;50.866;12.750;2023-11-22T05:28:25;-0.40;95.70
4376;DHT22;2202;50.866;12.750;2023-11-22T05:30:52;-0.40;95.90
4376;DHT22;2202;50.866;12.750;2023-11-22T05:33:20;-0.30;95.90
4376;DHT22;2202;50.866;12.750;2023-11-22T05:35:47;-0.40;95.90
4376;DHT22;2202;50.866;12.750;2023-11-22T05:38:14;-0.50;95.70
4376;DHT22;2202;50.866;12.750;2023-11-22T05:40:40;-0.50;96.20
4376;DHT22;2202;50.866;12.750;2023-11-22T05:43:08;-0.50;96.20
4376;DHT22;2202;50.866;12.750;2023-11-22T05:45:35;-0.40;96.40
4376;DHT22;2202;50.866;12.750;2023-11-22T05:48:02;-0.40;96.00
4376;DHT22;2202;50.866;12.750;2023-11-22T05:50:31;-0.50;95.70
4376;DHT22;2202;50.866;12.750;2023-11-22T05:52:57;-0.50;95.90
4376;DHT22;2202;50.866;12.750;2023-11-22T05:55:25;-0.50;96.20
4376;DHT22;2202;50.866;12.750;2023-11-22T05:57:53;-0.50;96.30
4376;DHT22;2202;50.866;12.750;2023-11-22T06:00:20;-0.50;96.30
4376;DHT22;2202;50.866;12.750;2023-11-22T06:02:47;-0.40;96.20
4376;DHT22;2202;50.866;12.750;2023-11-22T06:05:14;-0.40;95.90
4376;DHT22;2202;50.866;12.750;2023-11-22T06:07:42;-0.40;95.90
4376;DHT22;2202;50.866;12.750;2023-11-22T06:10:09;-0.40;96.00
4376;DHT22;2202;50.866;12.750;2023-11-22T06:12:38;-0.30;96.10
4376;DHT22;2202;50.866;12.750;2023-11-22T06:15:06;-0.30;96.00
4376;DHT22;2202;50.866;12.750;2023-11-22T06:17:33;-0.20;95.70
4376;DHT22;2202;50.866;12.750;2023-11-22T06:20:00;-0.20;95.60
4376;DHT22;2202;50.866;12.750;2023-11-22T06:22:28;-0.30;95.40
4376;DHT22;2202;50.866;12.750;2023-11-22T06:24:57;-0.30;95.50
4376;DHT22;2202;50.866;12.750;2023-11-22T06:27:24;-0.30;95.50
4376;DHT22;2202;50.866;12.750;2023-11-22T06:29:51;-0.30;95.60
4376;DHT22;2202;50.866;12.750;2023-11-22T06:32:18;-0.20;95.60
4376;DHT22;2202;50.866;12.750;2023-11-22T06:34:45;-0.20;95.50
4376;DHT22;2202;50.866;12.750;2023-11-22T06:37:12;-0.30;95.80
4376;DHT22;2202;50.866;12.750;2023-11-22T06:39:38;-0.30;95.80
4376;DHT22;2202;50.866;12.750;2023-11-22T06:42:08;-0.40;95.70
4376;DHT22;2202;50.866;12.750;2023-11-22T06:44:36;-0.30;95.70
4376;DHT22;2202;50.866;12.750;2023-11-22T06:47:03;-0.30;95.50
4376;DHT22;2202;50.866;12.750;2023-11-22T06:49:29;-0.40;95.40
4376;DHT22;2202;50.866;12.750;2023-11-22T06:51:56;-0.50;95.50
4376;DHT22;2202;50.866;12.750;2023-11-22T06:54:23;-0.50;95.90
4376;DHT22;2202;50.866;12.750;2023-11-22T06:56:50;-0.50;95.80
4376;DHT22;2202;50.866;12.750;2023-11-22T06:59:19;-0.50;95.80
4376;DHT22;2202;50.866;12.750;2023-11-22T07:01:45;-0.50;96.10
4376;DHT22;2202;50.866;12.750;2023-11-22T07:04:12;-0.40;96.10
4376;DHT22;2202;50.866;12.750;2023-11-22T07:06:39;-0.50;96.00
4376;DHT22;2202;50.866;12.750;2023-11-22T07:09:08;-0.50;96.10
4376;DHT22;2202;50.866;12.750;2023-11-22T07:11:36;-0.50;96.30
4376;DHT22;2202;50.866;12.750;2023-11-22T07:14:03;-0.50;96.30
4376;DHT22;2202;50.866;12.750;2023-11-22T07:16:32;-0.50;96.50
4376;DHT22;2202;50.866;12.750;2023-11-22T07:18:59;-0.50;96.60
4376;DHT22;2202;50.866;12.750;2023-11-22T07:21:28;-0.50;96.60
4376;DHT22;2202;50.866;12.750;2023-11-22T07:23:55;-0.40;96.70
4376;DHT22;2202;50.866;12.750;2023-11-22T07:26:22;-0.50;96.10
4376;DHT22;2202;50.866;12.750;2023-11-22T07:28:52;-0.50;96.40
4376;DHT22;2202;50.866;12.750;2023-11-22T07:31:19;-0.50;96.40
4376;DHT22;2202;50.866;12.750;2023-11-22T07:33:48;-0.60;96.40
4376;DHT22;2202;50.866;12.750;2023-11-22T07:36:14;-0.50;96.60
4376;DHT22;2202;50.866;12.750;2023-11-22T07:38:42;-0.60;96.60
4376;DHT22;2202;50.866;12.750;2023-11-22T07:41:10;-0.50;96.60
4376;DHT22;2202;50.866;12.750;2023-11-22T07:43:37;-0.50;96.60
4376;DHT22;2202;50.866;12.750;2023-11-22T07:46:05;-0.50;96.60
4376;DHT22;2202;50.866;12.750;2023-11-22T07:48:34;-0.50;96.60
4376;DHT22;2202;50.866;12.750;2023-11-22T07:51:04;-0.40;96.80
4376;DHT22;2202;50.866;12.750;2023-11-22T07:53:32;-0.40;96.70
4376;DHT22;2202;50.866;12.750;2023-11-22T07:55:59;-0.40;96.70
4376;DHT22;2202;50.866;12.750;2023-11-22T07:58:29;-0.40;96.70
4376;DHT22;2202;50.866;12.750;2023-11-22T08:00:57;-0.40;96.80
4376;DHT22;2202;50.866;12.750;2023-11-22T08:03:25;-0.50;96.80
4376;DHT22;2202;50.866;12.750;2023-11-22T08:05:52;-0.50;96.90
4376;DHT22;2202;50.866;12.750;2023-11-22T08:08:22;-0.50;97.00
4376;DHT22;2202;50.866;12.750;2023-11-22T08:10:49;-0.40;97.10
4376;DHT22;2202;50.866;12.750;2023-11-22T08:13:18;-0.50;97.10
4376;DHT22;2202;50.866;12.750;2023-11-22T08:15:48;-0.40;97.10
4376;DHT22;2202;50.866;12.750;2023-11-22T08:18:15;-0.40;96.90
4376;DHT22;2202;50.866;12.750;2023-11-22T08:20:42;-0.50;96.80
4376;DHT22;2202;50.866;12.750;2023-11-22T08:23:08;-0.60;96.80
4376;DHT22;2202;50.866;12.750;2023-11-22T08:25:37;-0.50;96.90
4376;DHT22;2202;50.866;12.750;2023-11-22T08:28:04;-0.50;96.90
4376;DHT22;2202;50.866;12.750;2023-11-22T08:30:33;-0.50;96.90
4376;DHT22;2202;50.866;12.750;2023-11-22T08:33:01;-0.50;96.90
4376;DHT22;2202;50.866;12.750;2023-11-22T08:35:28;-0.60;96.70
4376;DHT22;2202;50.866;12.750;2023-11-22T08:37:55;-0.60;97.10
4376;DHT22;2202;50.866;12.750;2023-11-22T08:40:24;-0.70;97.10
4376;DHT22;2202;50.866;12.750;2023-11-22T08:42:52;-0.70;97.10
4376;DHT22;2202;50.866;12.750;2023-11-22T08:45:19;-0.60;97.30
4376;DHT22;2202;50.866;12.750;2023-11-22T08:47:46;-0.50;97.30
4376;DHT22;2202;50.866;12.750;2023-11-22T08:50:13;-0.50;97.00
4376;DHT22;2202;50.866;12.750;2023-11-22T08:52:41;-0.50;96.90
4376;DHT22;2202;50.866;12.750;2023-11-22T08:55:10;-0.50;97.30
4376;DHT22;2202;50.866;12.750;2023-11-22T08:57:38;-0.50;97.30
4376;DHT22;2202;50.866;12.750;2023-11-22T09:00:08;-0.40;97.20
4376;DHT22;2202;50.866;12.750;2023-11-22T09:02:36;-0.40;97.20
4376;DHT22;2202;50.866;12.750;2023-11-22T09:05:05;-0.40;96.60
4376;DHT22;2202;50.866;12.750;2023-11-22T09:07:33;-0.50;96.50
4376;DHT22;2202;50.866;12.750;2023-11-22T09:10:01;-0.50;96.70
4376;DHT22;2202;50.866;12.750;2023-11-22T09:12:35;-0.40;96.80
4376;DHT22;2202;50.866;12.750;2023-11-22T09:15:02;-0.50;96.80
4376;DHT22;2202;50.866;12.750;2023-11-22T09:17:31;-0.50;97.00
4376;DHT22;2202;50.866;12.750;2023-11-22T09:19:57;-0.50;97.00
4376;DHT22;2202;50.866;12.750;2023-11-22T09:22:24;-0.50;97.00
4376;DHT22;2202;50.866;12.750;2023-11-22T09:24:52;-0.40;97.00
4376;DHT22;2202;50.866;12.750;2023-11-22T09:27:19;-0.50;96.60
4376;DHT22;2202;50.866;12.750;2023-11-22T09:29:46;-0.50;96.50
4376;DHT22;2202;50.866;12.750;2023-11-22T09:32:14;-0.50;96.50
4376;DHT22;2202;50.866;12.750;2023-11-22T09:34:42;-0.60;96.60
4376;DHT22;2202;50.866;12.750;2023-11-22T09:37:09;-0.60;96.70
4376;DHT22;2202;50.866;12.750;2023-11-22T09:39:36;-0.60;96.70
4376;DHT22;2202;50.866;12.750;2023-11-22T09:42:05;-0.60;96.50
4376;DHT22;2202;50.866;12.750;2023-11-22T09:44:32;-0.70;96.60
4376;DHT22;2202;50.866;12.750;2023-11-22T09:46:58;-0.70;96.70
4376;DHT22;2202;50.866;12.750;2023-11-22T09:49:30;-0.70;96.60
4376;DHT22;2202;50.866;12.750;2023-11-22T09:52:01;-0.70;96.80
4376;DHT22;2202;50.866;12.750;2023-11-22T09:54:30;-0.70;96.30
4376;DHT22;2202;50.866;12.750;2023-11-22T09:56:59;-0.80;96.60
4376;DHT22;2202;50.866;12.750;2023-11-22T09:59:29;-0.70;96.70
4376;DHT22;2202;50.866;12.750;2023-11-22T10:01:58;-0.60;96.70
4376;DHT22;2202;50.866;12.750;2023-11-22T10:04:25;-0.50;96.40
4376;DHT22;2202;50.866;12.750;2023-11-22T10:06:55;-0.50;96.50
4376;DHT22;2202;50.866;12.750;2023-11-22T10:09:25;-0.40;96.80
4376;DHT22;2202;50.866;12.750;2023-11-22T10:11:52;-0.40;96.70
4376;DHT22;2202;50.866;12.750;2023-11-22T10:14:22;-0.30;96.40
4376;DHT22;2202;50.866;12.750;2023-11-22T10:16:58;-0.40;96.50
4376;DHT22;2202;50.866;12.750;2023-11-22T10:19:25;-0.40;96.50
4376;DHT22;2202;50.866;12.750;2023-11-22T10:22:02;-0.40;96.60
4376;DHT22;2202;50.866;12.750;2023-11-22T10:24:32;-0.30;96.70
4376;DHT22;2202;50.866;12.750;2023-11-22T10:27:00;-0.40;96.50
4376;DHT22;2202;50.866;12.750;2023-11-22T10:29:27;-0.30;96.20
4376;DHT22;2202;50.866;12.750;2023-11-22T10:31:54;-0.30;96.30
4376;DHT22;2202;50.866;12.750;2023-11-22T10:34:21;-0.20;96.20
4376;DHT22;2202;50.866;12.750;2023-11-22T10:36:48;-0.20;96.10
4376;DHT22;2202;50.866;12.750;2023-11-22T10:39:19;-0.10;96.00
4376;DHT22;2202;50.866;12.750;2023-11-22T10:41:47;-0.10;95.70
4376;DHT22;2202;50.866;12.750;2023-11-22T10:44:19;-0.10;95.70
4376;DHT22;2202;50.866;12.750;2023-11-22T10:46:47;0.00;95.70
4376;DHT22;2202;50.866;12.750;2023-11-22T10:49:14;0.10;95.40
4376;DHT22;2202;50.866;12.750;2023-11-22T10:51:41;0.10;94.80
4376;DHT22;2202;50.866;12.750;2023-11-22T10:54:10;0.20;94.80
4376;DHT22;2202;50.866;12.750;2023-11-22T10:56:39;0.20;94.70
4376;DHT22;2202;50.866;12.750;2023-11-22T10:59:12;0.10;94.50
4376;DHT22;2202;50.866;12.750;2023-11-22T11:01:44;0.10;94.20
4376;DHT22;2202;50.866;12.750;2023-11-22T11:04:19;0.00;93.90
4376;DHT22;2202;50.866;12.750;2023-11-22T11:06:51;0.10;93.90
4376;DHT22;2202;50.866;12.750;2023-11-22T11:09:19;0.10;93.80
4376;DHT22;2202;50.866;12.750;2023-11-22T11:11:50;-0.10;93.30
4376;DHT22;2202;50.866;12.750;2023-11-22T11:14:18;-0.10;93.60
4376;DHT22;2202;50.866;12.750;2023-11-22T11:16:46;0.00;93.60
4376;DHT22;2202;50.866;12.750;2023-11-22T11:19:16;0.10;93.50
4376;DHT22;2202;50.866;12.750;2023-11-22T11:21:44;0.00;92.40
4376;DHT22;2202;50.866;12.750;2023-11-22T11:24:11;0.00;92.70
4376;DHT22;2202;50.866;12.750;2023-11-22T11:26:38;0.10;93.20
4376;DHT22;2202;50.866;12.750;2023-11-22T11:29:05;0.20;92.60
4376;DHT22;2202;50.866;12.750;2023-11-22T11:31:39;0.30;92.40
4376;DHT22;2202;50.866;12.750;2023-11-22T11:34:07;0.30;92.10
4376;DHT22;2202;50.866;12.750;2023-11-22T11:36:37;0.40;91.80
4376;DHT22;2202;50.866;12.750;2023-11-22T11:39:06;0.30;92.00
4376;DHT22;2202;50.866;12.750;2023-11-22T11:41:35;0.40;92.20
4376;DHT22;2202;50.866;12.750;2023-11-22T11:44:07;0.50;91.60
4376;DHT22;2202;50.866;12.750;2023-11-22T11:46:37;0.50;90.90
4376;DHT22;2202;50.866;12.750;2023-11-22T11:49:06;0.50;90.70
4376;DHT22;2202;50.866;12.750;2023-11-22T11:51:33;0.50;90.00
4376;DHT22;2202;50.866;12.750;2023-11-22T11:54:00;0.20;89.80
4376;DHT22;2202;50.866;12.750;2023-11-22T11:56:27;0.10;90.10
4376;DHT22;2202;50.866;12.750;2023-11-22T11:58:56;0.00;90.80
4376;DHT22;2202;50.866;12.750;2023-11-22T12:01:24;0.00;90.90
4376;DHT22;2202;50.866;12.750;2023-11-22T12:03:56;-0.20;90.60
4376;DHT22;2202;50.866;12.750;2023-11-22T12:06:23;-0.30;90.60
4376;DHT22;2202;50.866;12.750;2023-11-22T12:08:50;-0.40;91.00
4376;DHT22;2202;50.866;12.750;2023-11-22T12:11:16;-0.40;91.50
4376;DHT22;2202;50.866;12.750;2023-11-22T12:13:44;-0.20;91.90
4376;DHT22;2202;50.866;12.750;2023-11-22T12:16:14;0.00;92.20
4376;DHT22;2202;50.866;12.750;2023-11-22T12:18:43;0.20;91.60
4376;DHT22;2202;50.866;12.750;2023-11-22T12:21:11;0.30;90.70
4376;DHT22;2202;50.866;12.750;2023-11-22T12:23:40;0.40;90.90
4376;DHT22;2202;50.866;12.750;2023-11-22T12:26:11;0.50;90.80
4376;DHT22;2202;50.866;12.750;2023-11-22T12:28:39;0.50;90.70
4376;DHT22;2202;50.866;12.750;2023-11-22T12:31:07;0.50;90.70
4376;DHT22;2202;50.866;12.750;2023-11-22T12:33:35;0.40;90.40
4376;DHT22;2202;50.866;12.750;2023-11-22T12:36:02;0.30;90.60
4376;DHT22;2202;50.866;12.750;2023-11-22T12:38:30;0.40;90.80
4376;DHT22;2202;50.866;12.750;2023-11-22T12:40:57;0.50;90.90
4376;DHT22;2202;50.866;12.750;2023-11-22T12:43:24;0.50;91.10
4376;DHT22;2202;50.866;12.750;2023-11-22T12:45:58;0.50;91.00
4376;DHT22;2202;50.866;12.750;2023-11-22T12:48:26;0.50;90.90
4376;DHT22;2202;50.866;12.750;2023-11-22T12:50:55;0.50;90.90
4376;DHT22;2202;50.866;12.750;2023-11-22T12:53:23;0.50;91.10
4376;DHT22;2202;50.866;12.750;2023-11-22T12:55:53;0.50;91.00
4376;DHT22;2202;50.866;12.750;2023-11-22T12:58:21;0.50;90.80
4376;DHT22;2202;50.866;12.750;2023-11-22T13:00:50;0.40;90.80
4376;DHT22;2202;50.866;12.750;2023-11-22T13:03:19;0.40;90.80
4376;DHT22;2202;50.866;12.750;2023-11-22T13:05:46;0.30;90.90
4376;DHT22;2202;50.866;12.750;2023-11-22T13:08:14;0.10;90.30
4376;DHT22;2202;50.866;12.750;2023-11-22T13:10:43;0.10;90.90
4376;DHT22;2202;50.866;12.750;2023-11-22T13:13:13;0.10;90.80
4376;DHT22;2202;50.866;12.750;2023-11-22T13:15:40;0.00;90.80
4376;DHT22;2202;50.866;12.750;2023-11-22T13:18:07;0.00;91.30
4376;DHT22;2202;50.866;12.750;2023-11-22T13:20:34;-0.10;90.30
4376;DHT22;2202;50.866;12.750;2023-11-22T13:23:04;0.00;90.40
4376;DHT22;2202;50.866;12.750;2023-11-22T13:25:31;0.00;90.30
4376;DHT22;2202;50.866;12.750;2023-11-22T13:27:57;0.00;89.20
4376;DHT22;2202;50.866;12.750;2023-11-22T13:30:26;-0.10;90.20
4376;DHT22;2202;50.866;12.750;2023-11-22T13:32:55;0.00;91.00
4376;DHT22;2202;50.866;12.750;2023-11-22T13:35:23;0.10;91.20
4376;DHT22;2202;50.866;12.750;2023-11-22T13:37:49;0.20;91.50
4376;DHT22;2202;50.866;12.750;2023-11-22T13:40:17;0.30;91.50
4376;DHT22;2202;50.866;12.750;2023-11-22T13:42:49;0.30;91.60
4376;DHT22;2202;50.866;12.750;2023-11-22T13:45:18;0.30;91.70
4376;DHT22;2202;50.866;12.750;2023-11-22T13:47:48;0.30;91.80
4376;DHT22;2202;50.866;12.750;2023-11-22T13:50:17;0.50;91.70
4376;DHT22;2202;50.866;12.750;2023-11-22T13:52:47;0.40;91.40
4376;DHT22;2202;50.866;12.750;2023-11-22T13:55:14;0.40;91.00
4376;DHT22;2202;50.866;12.750;2023-11-22T13:57:48;0.10;90.90
4376;DHT22;2202;50.866;12.750;2023-11-22T14:00:16;0.00;91.50
4376;DHT22;2202;50.866;12.750;2023-11-22T14:02:46;0.00;91.60
4376;DHT22;2202;50.866;12.750;2023-11-22T14:05:14;0.10;91.90
4376;DHT22;2202;50.866;12.750;2023-11-22T14:07:41;0.10;91.70
4376;DHT22;2202;50.866;12.750;2023-11-22T14:10:08;0.10;91.70
4376;DHT22;2202;50.866;12.750;2023-11-22T14:12:36;0.00;91.90
4376;DHT22;2202;50.866;12.750;2023-11-22T14:15:04;0.10;91.70
4376;DHT22;2202;50.866;12.750;2023-11-22T14:17:31;-0.20;91.70
4376;DHT22;2202;50.866;12.750;2023-11-22T14:19:59;-0.40;92.70
4376;DHT22;2202;50.866;12.750;2023-11-22T14:22:26;-0.50;93.20
4376;DHT22;2202;50.866;12.750;2023-11-22T14:24:53;-0.50;93.50
4376;DHT22;2202;50.866;12.750;2023-11-22T14:27:20;-0.50;93.10
4376;DHT22;2202;50.866;12.750;2023-11-22T14:29:48;-0.50;93.40
4376;DHT22;2202;50.866;12.750;2023-11-22T14:32:16;-0.70;93.80
4376;DHT22;2202;50.866;12.750;2023-11-22T14:34:43;-0.70;94.20
4376;DHT22;2202;50.866;12.750;2023-11-22T14:37:11;-0.70;94.50
4376;DHT22;2202;50.866;12.750;2023-11-22T14:39:39;-0.70;95.00
4376;DHT22;2202;50.866;12.750;2023-11-22T14:42:06;-0.60;95.20
4376;DHT22;2202;50.866;12.750;2023-11-22T14:44:33;-0.70;94.60
4376;DHT22;2202;50.866;12.750;2023-11-22T14:47:01;-0.90;94.40
4376;DHT22;2202;50.866;12.750;2023-11-22T14:49:31;-0.80;94.80
4376;DHT22;2202;50.866;12.750;2023-11-22T14:51:58;-0.90;94.50
4376;DHT22;2202;50.866;12.750;2023-11-22T14:54:26;-0.90;94.50
4376;DHT22;2202;50.866;12.750;2023-11-22T14:56:53;-0.90;94.80
4376;DHT22;2202;50.866;12.750;2023-11-22T14:59:21;-1.00;94.70
4376;DHT22;2202;50.866;12.750;2023-11-22T15:01:48;-0.80;95.00
4376;DHT22;2202;50.866;12.750;2023-11-22T15:04:15;-0.80;94.70
4376;DHT22;2202;50.866;12.750;2023-11-22T15:06:42;-0.80;94.80
4376;DHT22;2202;50.866;12.750;2023-11-22T15:09:10;-0.80;94.70
4376;DHT22;2202;50.866;12.750;2023-11-22T15:11:42;-0.90;94.90
4376;DHT22;2202;50.866;12.750;2023-11-22T15:14:10;-1.00;94.70
4376;DHT22;2202;50.866;12.750;2023-11-22T15:16:37;-1.00;95.10
4376;DHT22;2202;50.866;12.750;2023-11-22T15:19:04;-1.00;95.50
4376;DHT22;2202;50.866;12.750;2023-11-22T15:21:32;-1.00;95.40
4376;DHT22;2202;50.866;12.750;2023-11-22T15:24:00;-1.00;95.50
4376;DHT22;2202;50.866;12.750;2023-11-22T15:26:26;-1.00;95.70
4376;DHT22;2202;50.866;12.750;2023-11-22T15:28:55;-0.90;95.80
4376;DHT22;2202;50.866;12.750;2023-11-22T15:31:21;-0.80;95.70
4376;DHT22;2202;50.866;12.750;2023-11-22T15:33:49;-0.90;95.50
4376;DHT22;2202;50.866;12.750;2023-11-22T15:36:16;-0.90;95.70
4376;DHT22;2202;50.866;12.750;2023-11-22T15:38:43;-0.90;95.80
4376;DHT22;2202;50.866;12.750;2023-11-22T15:41:10;-0.90;95.90
4376;DHT22;2202;50.866;12.750;2023-11-22T15:43:39;-0.90;95.80
4376;DHT22;2202;50.866;12.750;2023-11-22T15:46:11;-1.00;96.10
4376;DHT22;2202;50.866;12.750;2023-11-22T15:48:40;-1.00;96.20
4376;DHT22;2202;50.866;12.750;2023-11-22T15:51:09;-1.10;96.30
4376;DHT22;2202;50.866;12.750;2023-11-22T15:53:37;-1.10;96.40